sensor_id;sensor_type;location;lat;lon;timestamp;noise_LAeq;noise_LA_min;noise_LA_max;noise_LA01;noise_LA95
57092;Laerm;42968;52.094;4.328;2023-04-19T00:00:59;50.83;37.52;65.88;;
57092;Laerm;42968;52.094;4.328;2023-04-19T00:03:26;58.43;37.70;75.97;;
57092;Laerm;42968;52.094;4.328;2023-04-19T00:05:52;47.56;37.88;59.86;;
57092;Laerm;42968;52.094;4.328;2023-04-19T00:08:23;42.45;38.81;52.69;;
57092;Laerm;42968;52.094;4.328;2023-04-19T00:10:48;52.48;38.52;67.47;;
57092;Laerm;42968;52.094;4.328;2023-04-19T00:13:13;48.08;38.37;64.21;;
57092;Laerm;42968;52.094;4.328;2023-04-19T00:15:39;50.82;38.21;70.19;;
57092;Laerm;42968;52.094;4.328;2023-04-19T00:18:04;40.78;36.91;44.65;;
57092;Laerm;42968;52.094;4.328;2023-04-19T00:20:29;40.87;37.70;45.23;;
57092;Laerm;42968;52.094;4.328;2023-04-19T00:22:55;40.89;36.91;48.84;;
57092;Laerm;42968;52.094;4.328;2023-04-19T00:25:22;40.88;37.52;50.88;;
57092;Laerm;42968;52.094;4.328;2023-04-19T00:27:47;41.29;38.37;50.25;;
57092;Laerm;42968;52.094;4.328;2023-04-19T00:30:12;48.32;37.32;68.14;;
57092;Laerm;42968;52.094;4.328;2023-04-19T00:32:38;51.54;36.69;68.39;;
57092;Laerm;42968;52.094;4.328;2023-04-19T00:35:03;40.11;36.45;43.72;;
57092;Laerm;42968;52.094;4.328;2023-04-19T00:37:28;40.09;36.69;43.81;;
57092;Laerm;42968;52.094;4.328;2023-04-19T00:39:54;51.65;37.70;67.68;;
57092;Laerm;42968;52.094;4.328;2023-04-19T00:42:19;49.69;38.52;65.28;;
57092;Laerm;42968;52.094;4.328;2023-04-19T00:44:44;53.90;36.69;69.80;;
57092;Laerm;42968;52.094;4.328;2023-04-19T00:47:10;56.26;37.52;71.45;;
57092;Laerm;42968;52.094;4.328;2023-04-19T00:49:35;56.75;35.94;74.51;;
57092;Laerm;42968;52.094;4.328;2023-04-19T00:52:01;40.22;36.20;46.78;;
57092;Laerm;42968;52.094;4.328;2023-04-19T00:54:26;40.80;36.69;47.65;;
57092;Laerm;42968;52.094;4.328;2023-04-19T00:56:51;55.31;36.45;73.25;;
57092;Laerm;42968;52.094;4.328;2023-04-19T00:59:17;58.43;37.52;77.79;;
57092;Laerm;42968;52.094;4.328;2023-04-19T01:01:42;55.75;37.52;72.84;;
57092;Laerm;42968;52.094;4.328;2023-04-19T01:04:07;53.07;36.91;70.62;;
57092;Laerm;42968;52.094;4.328;2023-04-19T01:06:33;39.82;36.91;43.14;;
57092;Laerm;42968;52.094;4.328;2023-04-19T01:08:59;55.60;36.20;74.59;;
57092;Laerm;42968;52.094;4.328;2023-04-19T01:11:26;40.08;35.04;43.19;;
57092;Laerm;42968;52.094;4.328;2023-04-19T01:13:53;58.40;38.37;74.06;;
57092;Laerm;42968;52.094;4.328;2023-04-19T01:16:19;56.44;39.34;71.98;;
57092;Laerm;42968;52.094;4.328;2023-04-19T01:18:44;60.01;40.03;73.40;;
57092;Laerm;42968;52.094;4.328;2023-04-19T01:21:09;39.96;36.45;44.03;;
57092;Laerm;42968;52.094;4.328;2023-04-19T01:23:35;39.42;34.69;41.75;;
57092;Laerm;42968;52.094;4.328;2023-04-19T01:26:01;56.20;36.91;72.19;;
57092;Laerm;42968;52.094;4.328;2023-04-19T01:28:26;48.24;35.94;66.18;;
57092;Laerm;42968;52.094;4.328;2023-04-19T01:30:51;54.43;36.69;70.74;;
57092;Laerm;42968;52.094;4.328;2023-04-19T01:33:18;42.03;37.70;55.12;;
57092;Laerm;42968;52.094;4.328;2023-04-19T01:35:43;40.30;36.69;43.49;;
57092;Laerm;42968;52.094;4.328;2023-04-19T01:38:09;56.14;36.69;72.06;;
57092;Laerm;42968;52.094;4.328;2023-04-19T01:40:34;50.79;37.32;67.29;;
57092;Laerm;42968;52.094;4.328;2023-04-19T01:42:59;49.37;37.52;64.66;;
57092;Laerm;42968;52.094;4.328;2023-04-19T01:45:24;40.56;37.32;43.44;;
57092;Laerm;42968;52.094;4.328;2023-04-19T01:47:50;40.84;37.12;45.11;;
57092;Laerm;42968;52.094;4.328;2023-04-19T01:50:15;54.32;38.21;69.54;;
57092;Laerm;42968;52.094;4.328;2023-04-19T01:52:41;53.17;37.52;71.72;;
57092;Laerm;42968;52.094;4.328;2023-04-19T01:55:06;53.71;37.88;73.04;;
57092;Laerm;42968;52.094;4.328;2023-04-19T01:57:32;59.23;37.88;74.95;;
57092;Laerm;42968;52.094;4.328;2023-04-19T01:59:57;57.79;38.21;72.07;;
57092;Laerm;42968;52.094;4.328;2023-04-19T02:02:22;41.37;37.70;47.68;;
57092;Laerm;42968;52.094;4.328;2023-04-19T02:04:48;53.13;37.88;70.52;;
57092;Laerm;42968;52.094;4.328;2023-04-19T02:07:13;42.44;39.34;48.84;;
57092;Laerm;42968;52.094;4.328;2023-04-19T02:09:38;54.69;38.95;72.12;;
57092;Laerm;42968;52.094;4.328;2023-04-19T02:12:04;41.41;38.21;51.80;;
57092;Laerm;42968;52.094;4.328;2023-04-19T02:14:30;48.90;37.88;64.99;;
57092;Laerm;42968;52.094;4.328;2023-04-19T02:16:56;53.69;37.52;67.17;;
57092;Laerm;42968;52.094;4.328;2023-04-19T02:19:21;51.01;37.88;70.08;;
57092;Laerm;42968;52.094;4.328;2023-04-19T02:21:46;40.83;37.88;45.23;;
57092;Laerm;42968;52.094;4.328;2023-04-19T02:24:12;56.77;38.95;73.51;;
57092;Laerm;42968;52.094;4.328;2023-04-19T02:26:37;42.77;38.21;51.97;;
57092;Laerm;42968;52.094;4.328;2023-04-19T02:29:03;47.91;38.05;63.30;;
57092;Laerm;42968;52.094;4.328;2023-04-19T02:31:28;53.49;38.67;67.39;;
57092;Laerm;42968;52.094;4.328;2023-04-19T02:33:53;53.59;39.58;72.85;;
57092;Laerm;42968;52.094;4.328;2023-04-19T02:36:19;56.53;39.70;76.27;;
57092;Laerm;42968;52.094;4.328;2023-04-19T02:38:44;55.51;38.37;70.86;;
57092;Laerm;42968;52.094;4.328;2023-04-19T02:41:09;50.89;38.05;67.99;;
57092;Laerm;42968;52.094;4.328;2023-04-19T02:43:34;51.10;38.21;67.88;;
57092;Laerm;42968;52.094;4.328;2023-04-19T02:46:00;58.81;39.34;79.02;;
57092;Laerm;42968;52.094;4.328;2023-04-19T02:48:25;41.60;38.37;45.42;;
57092;Laerm;42968;52.094;4.328;2023-04-19T02:50:50;51.51;38.52;67.81;;
57092;Laerm;42968;52.094;4.328;2023-04-19T02:53:16;55.25;39.21;71.42;;
57092;Laerm;42968;52.094;4.328;2023-04-19T02:55:41;63.86;39.92;77.50;;
57092;Laerm;42968;52.094;4.328;2023-04-19T02:58:06;61.31;39.92;76.21;;
57092;Laerm;42968;52.094;4.328;2023-04-19T03:00:32;58.74;39.34;75.33;;
57092;Laerm;42968;52.094;4.328;2023-04-19T03:02:57;53.49;39.70;70.86;;
57092;Laerm;42968;52.094;4.328;2023-04-19T03:05:22;56.40;39.08;74.32;;
57092;Laerm;42968;52.094;4.328;2023-04-19T03:07:48;60.43;40.03;77.27;;
57092;Laerm;42968;52.094;4.328;2023-04-19T03:10:13;57.86;39.08;74.46;;
57092;Laerm;42968;52.094;4.328;2023-04-19T03:12:38;60.64;40.33;75.71;;
57092;Laerm;42968;52.094;4.328;2023-04-19T03:15:04;58.77;39.92;73.78;;
57092;Laerm;42968;52.094;4.328;2023-04-19T03:17:30;63.47;39.92;78.49;;
57092;Laerm;42968;52.094;4.328;2023-04-19T03:19:55;60.33;41.30;76.07;;
57092;Laerm;42968;52.094;4.328;2023-04-19T03:22:21;61.39;43.90;76.41;;
57092;Laerm;42968;52.094;4.328;2023-04-19T03:24:46;63.10;41.06;78.23;;
57092;Laerm;42968;52.094;4.328;2023-04-19T03:27:11;63.97;43.68;80.36;;
57092;Laerm;42968;52.094;4.328;2023-04-19T03:29:36;61.58;42.29;74.80;;
57092;Laerm;42968;52.094;4.328;2023-04-19T03:32:01;57.69;41.75;73.55;;
57092;Laerm;42968;52.094;4.328;2023-04-19T03:34:27;62.88;41.06;75.85;;
57092;Laerm;42968;52.094;4.328;2023-04-19T03:36:52;62.43;41.75;76.15;;
57092;Laerm;42968;52.094;4.328;2023-04-19T03:39:17;67.12;43.34;84.73;;
57092;Laerm;42968;52.094;4.328;2023-04-19T03:41:42;60.90;42.41;73.35;;
57092;Laerm;42968;52.094;4.328;2023-04-19T03:44:08;64.21;44.07;76.54;;
57092;Laerm;42968;52.094;4.328;2023-04-19T03:46:33;62.09;44.07;77.37;;
57092;Laerm;42968;52.094;4.328;2023-04-19T03:48:58;64.93;42.35;80.76;;
57092;Laerm;42968;52.094;4.328;2023-04-19T03:51:24;63.39;49.32;77.14;;
57092;Laerm;42968;52.094;4.328;2023-04-19T03:53:49;64.41;48.67;76.72;;
57092;Laerm;42968;52.094;4.328;2023-04-19T03:56:14;62.29;42.93;75.20;;
57092;Laerm;42968;52.094;4.328;2023-04-19T03:58:39;60.61;43.04;77.41;;
57092;Laerm;42968;52.094;4.328;2023-04-19T04:01:04;64.61;43.04;78.66;;
57092;Laerm;42968;52.094;4.328;2023-04-19T04:03:32;58.48;42.29;73.67;;
57092;Laerm;42968;52.094;4.328;2023-04-19T04:05:58;61.62;42.88;75.26;;
57092;Laerm;42968;52.094;4.328;2023-04-19T04:08:23;63.79;48.76;73.77;;
57092;Laerm;42968;52.094;4.328;2023-04-19T04:10:48;63.03;45.27;73.81;;
57092;Laerm;42968;52.094;4.328;2023-04-19T04:13:13;65.22;46.95;75.78;;
57092;Laerm;42968;52.094;4.328;2023-04-19T04:15:39;65.70;47.10;77.28;;
57092;Laerm;42968;52.094;4.328;2023-04-19T04:18:04;64.79;47.02;76.90;;
57092;Laerm;42968;52.094;4.328;2023-04-19T04:20:30;66.04;47.76;76.49;;
57092;Laerm;42968;52.094;4.328;2023-04-19T04:22:55;65.68;48.20;77.07;;
57092;Laerm;42968;52.094;4.328;2023-04-19T04:25:20;64.87;45.73;74.45;;
57092;Laerm;42968;52.094;4.328;2023-04-19T04:27:46;68.16;44.54;82.51;;
57092;Laerm;42968;52.094;4.328;2023-04-19T04:30:12;66.89;46.48;79.13;;
57092;Laerm;42968;52.094;4.328;2023-04-19T04:32:37;66.83;44.35;81.15;;
57092;Laerm;42968;52.094;4.328;2023-04-19T04:35:05;69.23;44.76;80.35;;
57092;Laerm;42968;52.094;4.328;2023-04-19T04:37:31;68.99;48.13;79.27;;
57092;Laerm;42968;52.094;4.328;2023-04-19T04:39:58;67.99;49.18;80.82;;
57092;Laerm;42968;52.094;4.328;2023-04-19T04:42:23;71.95;49.67;88.93;;
57092;Laerm;42968;52.094;4.328;2023-04-19T04:44:48;67.89;49.88;77.57;;
57092;Laerm;42968;52.094;4.328;2023-04-19T04:47:15;67.91;49.57;82.19;;
57092;Laerm;42968;52.094;4.328;2023-04-19T04:49:40;71.24;45.27;88.42;;
57092;Laerm;42968;52.094;4.328;2023-04-19T04:52:06;68.27;45.60;79.80;;
57092;Laerm;42968;52.094;4.328;2023-04-19T04:54:32;67.80;48.54;76.00;;
57092;Laerm;42968;52.094;4.328;2023-04-19T04:56:58;68.82;49.35;80.36;;
57092;Laerm;42968;52.094;4.328;2023-04-19T04:59:23;69.42;47.08;83.45;;
57092;Laerm;42968;52.094;4.328;2023-04-19T05:01:48;68.99;54.81;79.94;;
57092;Laerm;42968;52.094;4.328;2023-04-19T05:04:14;69.15;50.06;79.37;;
57092;Laerm;42968;52.094;4.328;2023-04-19T05:06:39;68.21;45.94;78.86;;
57092;Laerm;42968;52.094;4.328;2023-04-19T05:09:05;68.69;49.25;80.99;;
57092;Laerm;42968;52.094;4.328;2023-04-19T05:11:30;68.14;45.94;77.18;;
57092;Laerm;42968;52.094;4.328;2023-04-19T05:13:56;69.43;47.40;81.94;;
57092;Laerm;42968;52.094;4.328;2023-04-19T05:16:21;69.24;54.21;79.36;;
57092;Laerm;42968;52.094;4.328;2023-04-19T05:18:47;70.86;56.49;80.50;;
57092;Laerm;42968;52.094;4.328;2023-04-19T05:21:12;70.31;49.79;83.73;;
57092;Laerm;42968;52.094;4.328;2023-04-19T05:23:37;69.71;50.31;81.06;;
57092;Laerm;42968;52.094;4.328;2023-04-19T05:26:03;69.62;51.08;78.76;;
57092;Laerm;42968;52.094;4.328;2023-04-19T05:28:28;70.56;49.59;82.63;;
57092;Laerm;42968;52.094;4.328;2023-04-19T05:30:53;68.51;48.90;81.46;;
57092;Laerm;42968;52.094;4.328;2023-04-19T05:33:18;69.97;50.45;78.51;;
57092;Laerm;42968;52.094;4.328;2023-04-19T05:35:44;68.70;51.56;84.37;;
57092;Laerm;42968;52.094;4.328;2023-04-19T05:38:09;66.98;49.00;77.64;;
57092;Laerm;42968;52.094;4.328;2023-04-19T05:40:34;71.81;56.40;79.79;;
57092;Laerm;42968;52.094;4.328;2023-04-19T05:42:59;68.16;49.43;77.37;;
57092;Laerm;42968;52.094;4.328;2023-04-19T05:45:25;70.26;48.48;78.15;;
57092;Laerm;42968;52.094;4.328;2023-04-19T05:47:50;71.15;49.40;78.54;;
57092;Laerm;42968;52.094;4.328;2023-04-19T05:50:15;70.19;48.48;78.15;;
57092;Laerm;42968;52.094;4.328;2023-04-19T05:52:42;70.77;49.12;78.81;;
57092;Laerm;42968;52.094;4.328;2023-04-19T05:55:07;69.03;48.26;77.85;;
57092;Laerm;42968;52.094;4.328;2023-04-19T05:57:33;71.58;47.30;84.27;;
57092;Laerm;42968;52.094;4.328;2023-04-19T05:59:59;70.02;51.46;79.73;;
57092;Laerm;42968;52.094;4.328;2023-04-19T06:02:24;69.75;47.48;78.60;;
57092;Laerm;42968;52.094;4.328;2023-04-19T06:04:50;70.07;48.02;79.02;;
57092;Laerm;42968;52.094;4.328;2023-04-19T06:07:15;68.64;47.18;78.38;;
57092;Laerm;42968;52.094;4.328;2023-04-19T06:09:41;71.53;52.53;84.31;;
57092;Laerm;42968;52.094;4.328;2023-04-19T06:12:06;67.96;49.53;79.90;;
57092;Laerm;42968;52.094;4.328;2023-04-19T06:14:31;71.66;55.62;92.00;;
57092;Laerm;42968;52.094;4.328;2023-04-19T06:16:56;69.61;58.82;79.57;;
57092;Laerm;42968;52.094;4.328;2023-04-19T06:19:22;69.10;57.60;78.40;;
57092;Laerm;42968;52.094;4.328;2023-04-19T06:21:47;71.69;56.70;93.86;;
57092;Laerm;42968;52.094;4.328;2023-04-19T06:24:13;69.91;54.25;81.73;;
57092;Laerm;42968;52.094;4.328;2023-04-19T06:26:38;70.59;58.47;77.38;;
57092;Laerm;42968;52.094;4.328;2023-04-19T06:29:04;70.27;47.68;77.86;;
57092;Laerm;42968;52.094;4.328;2023-04-19T06:31:29;70.57;54.55;80.65;;
57092;Laerm;42968;52.094;4.328;2023-04-19T06:33:54;69.88;52.32;83.66;;
57092;Laerm;42968;52.094;4.328;2023-04-19T06:36:20;70.34;55.01;76.71;;
57092;Laerm;42968;52.094;4.328;2023-04-19T06:38:45;69.97;50.56;78.67;;
57092;Laerm;42968;52.094;4.328;2023-04-19T06:41:11;70.16;55.01;77.47;;
57092;Laerm;42968;52.094;4.328;2023-04-19T06:43:36;68.20;56.41;75.76;;
57092;Laerm;42968;52.094;4.328;2023-04-19T06:46:02;69.43;50.64;77.78;;
57092;Laerm;42968;52.094;4.328;2023-04-19T06:48:28;71.17;55.34;80.56;;
57092;Laerm;42968;52.094;4.328;2023-04-19T06:50:53;71.97;55.21;80.78;;
57092;Laerm;42968;52.094;4.328;2023-04-19T06:53:19;70.25;54.17;83.26;;
57092;Laerm;42968;52.094;4.328;2023-04-19T06:55:44;74.42;55.99;93.26;;
57092;Laerm;42968;52.094;4.328;2023-04-19T06:58:10;70.19;59.30;86.36;;
57092;Laerm;42968;52.094;4.328;2023-04-19T07:00:35;69.64;54.84;81.27;;
57092;Laerm;42968;52.094;4.328;2023-04-19T07:03:01;68.30;52.70;75.82;;
57092;Laerm;42968;52.094;4.328;2023-04-19T07:05:26;69.94;49.35;77.44;;
57092;Laerm;42968;52.094;4.328;2023-04-19T07:07:52;69.63;48.31;79.35;;
57092;Laerm;42968;52.094;4.328;2023-04-19T07:10:17;70.43;45.51;80.40;;
57092;Laerm;42968;52.094;4.328;2023-04-19T07:12:42;69.33;55.58;80.32;;
57092;Laerm;42968;52.094;4.328;2023-04-19T07:15:07;69.49;54.58;79.18;;
57092;Laerm;42968;52.094;4.328;2023-04-19T07:17:34;67.99;47.63;78.21;;
57092;Laerm;42968;52.094;4.328;2023-04-19T07:19:59;68.53;48.02;77.54;;
57092;Laerm;42968;52.094;4.328;2023-04-19T07:22:25;69.29;47.76;79.55;;
57092;Laerm;42968;52.094;4.328;2023-04-19T07:24:51;69.40;47.48;82.15;;
57092;Laerm;42968;52.094;4.328;2023-04-19T07:27:16;69.10;56.06;83.42;;
57092;Laerm;42968;52.094;4.328;2023-04-19T07:29:42;69.36;51.65;82.49;;
57092;Laerm;42968;52.094;4.328;2023-04-19T07:32:08;67.49;45.66;80.36;;
57092;Laerm;42968;52.094;4.328;2023-04-19T07:34:33;67.27;48.85;87.59;;
57092;Laerm;42968;52.094;4.328;2023-04-19T07:36:58;70.23;49.71;81.09;;
57092;Laerm;42968;52.094;4.328;2023-04-19T07:39:23;68.81;51.44;80.00;;
57092;Laerm;42968;52.094;4.328;2023-04-19T07:41:49;69.34;53.47;79.00;;
57092;Laerm;42968;52.094;4.328;2023-04-19T07:44:14;67.92;54.09;78.69;;
57092;Laerm;42968;52.094;4.328;2023-04-19T07:46:41;70.36;56.87;85.64;;
57092;Laerm;42968;52.094;4.328;2023-04-19T07:49:06;68.58;51.96;82.13;;
57092;Laerm;42968;52.094;4.328;2023-04-19T07:51:32;70.82;49.24;80.35;;
57092;Laerm;42968;52.094;4.328;2023-04-19T07:53:57;68.86;46.48;80.46;;
57092;Laerm;42968;52.094;4.328;2023-04-19T07:56:22;69.33;51.59;80.49;;
57092;Laerm;42968;52.094;4.328;2023-04-19T07:58:50;69.62;49.56;81.02;;
57092;Laerm;42968;52.094;4.328;2023-04-19T08:01:15;68.65;48.29;80.71;;
57092;Laerm;42968;52.094;4.328;2023-04-19T08:03:41;70.83;48.34;83.75;;
57092;Laerm;42968;52.094;4.328;2023-04-19T08:06:06;69.76;45.94;80.90;;
57092;Laerm;42968;52.094;4.328;2023-04-19T08:08:35;68.83;53.28;78.17;;
57092;Laerm;42968;52.094;4.328;2023-04-19T08:11:00;68.59;50.28;77.94;;
57092;Laerm;42968;52.094;4.328;2023-04-19T08:13:26;68.82;51.05;76.53;;
57092;Laerm;42968;52.094;4.328;2023-04-19T08:15:52;70.08;50.61;84.51;;
57092;Laerm;42968;52.094;4.328;2023-04-19T08:18:17;68.70;51.76;77.17;;
57092;Laerm;42968;52.094;4.328;2023-04-19T08:20:42;68.89;50.15;82.95;;
57092;Laerm;42968;52.094;4.328;2023-04-19T08:23:07;68.14;51.65;78.68;;
57092;Laerm;42968;52.094;4.328;2023-04-19T08:25:33;67.93;49.20;77.49;;
57092;Laerm;42968;52.094;4.328;2023-04-19T08:27:58;69.84;48.29;80.56;;
57092;Laerm;42968;52.094;4.328;2023-04-19T08:30:24;68.66;47.04;78.22;;
57092;Laerm;42968;52.094;4.328;2023-04-19T08:32:49;68.24;50.91;79.30;;
57092;Laerm;42968;52.094;4.328;2023-04-19T08:35:15;67.77;53.92;76.59;;
57092;Laerm;42968;52.094;4.328;2023-04-19T08:37:40;68.81;50.43;82.22;;
57092;Laerm;42968;52.094;4.328;2023-04-19T08:40:06;68.75;50.62;78.30;;
57092;Laerm;42968;52.094;4.328;2023-04-19T08:42:31;67.94;53.29;75.32;;
57092;Laerm;42968;52.094;4.328;2023-04-19T08:44:59;69.00;48.49;79.01;;
57092;Laerm;42968;52.094;4.328;2023-04-19T08:47:26;67.29;48.91;84.48;;
57092;Laerm;42968;52.094;4.328;2023-04-19T08:49:52;69.38;54.31;78.60;;
57092;Laerm;42968;52.094;4.328;2023-04-19T08:52:19;68.28;53.32;78.36;;
57092;Laerm;42968;52.094;4.328;2023-04-19T08:54:44;67.84;48.43;76.89;;
57092;Laerm;42968;52.094;4.328;2023-04-19T08:57:10;70.52;51.73;92.12;;
57092;Laerm;42968;52.094;4.328;2023-04-19T08:59:36;68.17;51.95;77.03;;
57092;Laerm;42968;52.094;4.328;2023-04-19T09:02:02;69.57;54.32;79.72;;
57092;Laerm;42968;52.094;4.328;2023-04-19T09:04:27;68.05;54.51;77.28;;
57092;Laerm;42968;52.094;4.328;2023-04-19T09:06:53;68.35;53.20;78.20;;
57092;Laerm;42968;52.094;4.328;2023-04-19T09:09:22;68.55;51.97;78.02;;
57092;Laerm;42968;52.094;4.328;2023-04-19T09:11:48;67.67;49.67;76.36;;
57092;Laerm;42968;52.094;4.328;2023-04-19T09:14:14;68.69;48.31;76.96;;
57092;Laerm;42968;52.094;4.328;2023-04-19T09:16:41;68.49;55.54;78.29;;
57092;Laerm;42968;52.094;4.328;2023-04-19T09:19:06;68.72;51.77;82.18;;
57092;Laerm;42968;52.094;4.328;2023-04-19T09:21:36;69.76;53.07;83.43;;
57092;Laerm;42968;52.094;4.328;2023-04-19T09:24:02;70.76;51.69;86.37;;
57092;Laerm;42968;52.094;4.328;2023-04-19T09:26:27;68.40;51.48;80.28;;
57092;Laerm;42968;52.094;4.328;2023-04-19T09:28:59;68.89;47.98;80.09;;
57092;Laerm;42968;52.094;4.328;2023-04-19T09:31:26;67.68;45.36;75.98;;
57092;Laerm;42968;52.094;4.328;2023-04-19T09:33:52;68.49;47.93;83.02;;
57092;Laerm;42968;52.094;4.328;2023-04-19T09:36:28;74.96;55.28;85.17;;
57092;Laerm;42968;52.094;4.328;2023-04-19T09:38:53;68.95;50.11;80.83;;
57092;Laerm;42968;52.094;4.328;2023-04-19T09:41:19;67.95;52.34;77.25;;
57092;Laerm;42968;52.094;4.328;2023-04-19T09:43:44;69.02;48.98;78.31;;
57092;Laerm;42968;52.094;4.328;2023-04-19T09:48:58;67.63;49.06;75.60;;
57092;Laerm;42968;52.094;4.328;2023-04-19T09:51:47;69.77;54.27;77.08;;
57092;Laerm;42968;52.094;4.328;2023-04-19T09:54:13;68.00;49.67;81.48;;
57092;Laerm;42968;52.094;4.328;2023-04-19T09:56:38;69.18;51.21;81.99;;
57092;Laerm;42968;52.094;4.328;2023-04-19T09:59:04;69.23;52.70;80.77;;
57092;Laerm;42968;52.094;4.328;2023-04-19T10:01:34;69.40;47.65;80.19;;
57092;Laerm;42968;52.094;4.328;2023-04-19T10:03:59;68.43;51.98;88.84;;
57092;Laerm;42968;52.094;4.328;2023-04-19T10:06:24;82.70;51.33;104.62;;
57092;Laerm;42968;52.094;4.328;2023-04-19T10:08:51;68.74;53.82;76.38;;
57092;Laerm;42968;52.094;4.328;2023-04-19T10:11:18;69.32;48.07;77.86;;
57092;Laerm;42968;52.094;4.328;2023-04-19T10:13:45;68.76;52.57;78.57;;
57092;Laerm;42968;52.094;4.328;2023-04-19T10:16:12;68.52;48.26;78.32;;
57092;Laerm;42968;52.094;4.328;2023-04-19T10:18:38;68.30;47.34;77.23;;
57092;Laerm;42968;52.094;4.328;2023-04-19T10:21:05;68.92;47.98;78.98;;
57092;Laerm;42968;52.094;4.328;2023-04-19T10:23:32;69.98;48.87;81.82;;
57092;Laerm;42968;52.094;4.328;2023-04-19T10:25:57;69.10;47.68;79.69;;
57092;Laerm;42968;52.094;4.328;2023-04-19T10:28:23;68.01;49.78;76.64;;
57092;Laerm;42968;52.094;4.328;2023-04-19T10:30:52;70.01;52.10;82.63;;
57092;Laerm;42968;52.094;4.328;2023-04-19T10:33:25;68.45;53.83;79.18;;
57092;Laerm;42968;52.094;4.328;2023-04-19T10:35:54;70.68;45.42;83.35;;
57092;Laerm;42968;52.094;4.328;2023-04-19T10:38:19;67.39;52.56;76.53;;
57092;Laerm;42968;52.094;4.328;2023-04-19T10:43:26;69.15;54.79;79.78;;
57092;Laerm;42968;52.094;4.328;2023-04-19T10:45:52;70.06;51.89;82.00;;
57092;Laerm;42968;52.094;4.328;2023-04-19T10:51:10;68.36;47.70;79.93;;
57092;Laerm;42968;52.094;4.328;2023-04-19T10:56:17;77.58;54.83;100.50;;
57092;Laerm;42968;52.094;4.328;2023-04-19T11:04:04;69.21;50.56;77.28;;
57092;Laerm;42968;52.094;4.328;2023-04-19T11:06:29;69.25;45.25;77.90;;
57092;Laerm;42968;52.094;4.328;2023-04-19T11:08:55;70.04;47.30;81.71;;
57092;Laerm;42968;52.094;4.328;2023-04-19T11:11:20;68.11;46.62;78.60;;
57092;Laerm;42968;52.094;4.328;2023-04-19T11:13:46;69.41;48.46;82.02;;
57092;Laerm;42968;52.094;4.328;2023-04-19T11:16:12;68.94;51.13;79.53;;
57092;Laerm;42968;52.094;4.328;2023-04-19T11:18:37;67.77;50.49;79.07;;
57092;Laerm;42968;52.094;4.328;2023-04-19T11:21:03;70.16;55.11;79.00;;
57092;Laerm;42968;52.094;4.328;2023-04-19T11:23:28;68.41;57.27;81.42;;
57092;Laerm;42968;52.094;4.328;2023-04-19T11:25:54;68.25;49.14;79.14;;
57092;Laerm;42968;52.094;4.328;2023-04-19T11:28:19;69.26;45.07;80.49;;
57092;Laerm;42968;52.094;4.328;2023-04-19T11:30:45;69.73;47.16;80.84;;
57092;Laerm;42968;52.094;4.328;2023-04-19T11:33:11;68.85;50.08;77.14;;
57092;Laerm;42968;52.094;4.328;2023-04-19T11:35:36;69.16;45.57;80.52;;
57092;Laerm;42968;52.094;4.328;2023-04-19T11:38:02;68.56;49.14;80.07;;
57092;Laerm;42968;52.094;4.328;2023-04-19T11:40:29;68.56;50.36;79.40;;
57092;Laerm;42968;52.094;4.328;2023-04-19T11:42:58;68.57;49.90;82.17;;
57092;Laerm;42968;52.094;4.328;2023-04-19T11:45:27;69.43;50.85;87.35;;
57092;Laerm;42968;52.094;4.328;2023-04-19T11:47:54;67.82;46.33;76.28;;
57092;Laerm;42968;52.094;4.328;2023-04-19T11:50:29;69.15;53.19;81.14;;
57092;Laerm;42968;52.094;4.328;2023-04-19T11:52:54;67.99;52.71;81.90;;
57092;Laerm;42968;52.094;4.328;2023-04-19T11:55:19;69.93;47.02;86.13;;
57092;Laerm;42968;52.094;4.328;2023-04-19T11:57:45;67.81;45.89;77.49;;
57092;Laerm;42968;52.094;4.328;2023-04-19T12:00:12;68.57;50.84;78.81;;
57092;Laerm;42968;52.094;4.328;2023-04-19T12:02:38;69.25;51.40;90.38;;
57092;Laerm;42968;52.094;4.328;2023-04-19T12:05:11;67.19;48.60;79.49;;
57092;Laerm;42968;52.094;4.328;2023-04-19T12:07:37;68.95;47.90;77.85;;
57092;Laerm;42968;52.094;4.328;2023-04-19T12:10:21;70.05;51.70;84.03;;
57092;Laerm;42968;52.094;4.328;2023-04-19T12:12:46;68.55;46.45;84.24;;
57092;Laerm;42968;52.094;4.328;2023-04-19T12:15:11;68.68;47.34;76.62;;
57092;Laerm;42968;52.094;4.328;2023-04-19T12:17:54;68.72;53.94;76.64;;
57092;Laerm;42968;52.094;4.328;2023-04-19T12:20:32;69.55;48.94;79.46;;
57092;Laerm;42968;52.094;4.328;2023-04-19T12:22:58;69.59;54.31;82.66;;
57092;Laerm;42968;52.094;4.328;2023-04-19T12:25:30;70.33;49.24;81.26;;
57092;Laerm;42968;52.094;4.328;2023-04-19T12:27:56;70.72;50.25;82.28;;
57092;Laerm;42968;52.094;4.328;2023-04-19T12:30:21;70.47;47.61;87.62;;
57092;Laerm;42968;52.094;4.328;2023-04-19T12:32:47;68.92;51.92;79.70;;
57092;Laerm;42968;52.094;4.328;2023-04-19T12:35:12;70.39;50.25;79.89;;
57092;Laerm;42968;52.094;4.328;2023-04-19T12:37:37;70.51;53.24;88.69;;
57092;Laerm;42968;52.094;4.328;2023-04-19T12:40:02;71.15;53.53;86.58;;
57092;Laerm;42968;52.094;4.328;2023-04-19T12:42:28;69.56;53.73;78.51;;
57092;Laerm;42968;52.094;4.328;2023-04-19T12:44:53;70.02;50.57;79.13;;
57092;Laerm;42968;52.094;4.328;2023-04-19T12:47:18;67.92;55.69;77.14;;
57092;Laerm;42968;52.094;4.328;2023-04-19T12:49:44;69.39;49.75;80.53;;
57092;Laerm;42968;52.094;4.328;2023-04-19T12:52:09;69.83;48.67;84.60;;
57092;Laerm;42968;52.094;4.328;2023-04-19T12:54:34;69.33;58.04;82.36;;
57092;Laerm;42968;52.094;4.328;2023-04-19T12:57:00;69.98;48.60;81.71;;
57092;Laerm;42968;52.094;4.328;2023-04-19T12:59:25;70.47;56.06;83.61;;
57092;Laerm;42968;52.094;4.328;2023-04-19T13:01:51;67.84;51.26;74.46;;
57092;Laerm;42968;52.094;4.328;2023-04-19T13:04:16;67.62;48.99;75.50;;
57092;Laerm;42968;52.094;4.328;2023-04-19T13:06:41;69.23;56.15;83.68;;
57092;Laerm;42968;52.094;4.328;2023-04-19T13:09:07;67.78;54.15;76.86;;
57092;Laerm;42968;52.094;4.328;2023-04-19T13:11:32;69.27;58.59;78.67;;
57092;Laerm;42968;52.094;4.328;2023-04-19T13:13:58;71.30;54.76;88.88;;
57092;Laerm;42968;52.094;4.328;2023-04-19T13:16:23;68.61;49.43;77.77;;
57092;Laerm;42968;52.094;4.328;2023-04-19T13:18:48;68.67;57.94;76.21;;
57092;Laerm;42968;52.094;4.328;2023-04-19T13:21:16;70.34;59.50;79.96;;
57092;Laerm;42968;52.094;4.328;2023-04-19T13:23:42;68.61;52.47;76.99;;
57092;Laerm;42968;52.094;4.328;2023-04-19T13:26:08;68.76;51.30;81.84;;
57092;Laerm;42968;52.094;4.328;2023-04-19T13:28:33;71.34;51.30;80.12;;
57092;Laerm;42968;52.094;4.328;2023-04-19T13:30:59;69.58;48.12;80.91;;
57092;Laerm;42968;52.094;4.328;2023-04-19T13:33:25;69.74;47.04;79.23;;
57092;Laerm;42968;52.094;4.328;2023-04-19T13:35:50;70.04;48.55;82.14;;
57092;Laerm;42968;52.094;4.328;2023-04-19T13:38:16;68.93;54.57;75.21;;
57092;Laerm;42968;52.094;4.328;2023-04-19T13:40:41;69.91;46.33;85.63;;
57092;Laerm;42968;52.094;4.328;2023-04-19T13:43:08;69.77;48.15;84.69;;
57092;Laerm;42968;52.094;4.328;2023-04-19T13:45:33;71.35;56.56;89.94;;
57092;Laerm;42968;52.094;4.328;2023-04-19T13:48:02;70.62;52.11;85.51;;
57092;Laerm;42968;52.094;4.328;2023-04-19T13:50:28;68.90;54.79;78.42;;
57092;Laerm;42968;52.094;4.328;2023-04-19T13:52:53;70.43;56.69;77.79;;